Time;durP1;ratioP1;P1;durP2;ratioP2;P2;SDS_P1;SDS_P2;PMS_P1;PMS_P2;Temp;Humidity;BMP_temperature;BMP_pressure;BME280_temperature;BME280_humidity;BME280_pressure;Samples;Min_cycle;Max_cycle;Signal;HPM_P1;HPM_P2
2023/06/09 00:03:01;;;;;;;11.80;7.35;;;;;;;16.39;57.33;100868.25;1771934;79;21335;-55
2023/06/09 00:06:10;;;;;;;15.38;7.40;;;;;;;16.32;57.34;100867.34;1771603;80;21730;-55
2023/06/09 00:09:16;;;;;;;10.00;7.17;;;;;;;16.27;57.41;100862.42;1771752;79;21359;-55
2023/06/09 00:12:21;;;;;;;16.17;7.60;;;;;;;16.24;57.55;100861.96;1771369;80;21323;-55
2023/06/09 00:15:27;;;;;;;10.95;7.62;;;;;;;16.21;57.70;100867.89;1771632;80;21970;-55
2023/06/09 00:18:34;;;;;;;12.78;7.85;;;;;;;16.18;57.85;100869.16;1772334;79;21328;-55
2023/06/09 00:21:44;;;;;;;15.35;7.65;;;;;;;16.13;57.96;100870.28;1772321;79;21347;-55
2023/06/09 00:24:52;;;;;;;15.55;7.12;;;;;;;16.09;58.03;100868.13;1721248;82;21450;-55
2023/06/09 00:27:58;;;;;;;13.03;7.45;;;;;;;16.05;58.10;100869.05;1710728;81;21918;-55
2023/06/09 00:31:07;;;;;;;11.78;7.53;;;;;;;15.99;58.14;100860.70;1749759;81;21825;-55
2023/06/09 00:34:13;;;;;;;11.73;7.22;;;;;;;15.93;58.17;100866.51;1772555;79;21355;-55
2023/06/09 00:37:19;;;;;;;12.47;8.15;;;;;;;15.89;58.30;100871.22;1772563;80;21852;-55
2023/06/09 00:40:25;;;;;;;12.53;7.58;;;;;;;15.84;58.40;100866.84;1763056;80;21188;-56
2023/06/09 00:43:32;;;;;;;11.60;7.75;;;;;;;15.79;58.50;100864.64;1761429;79;21571;-55
2023/06/09 00:46:39;;;;;;;11.05;7.78;;;;;;;15.73;58.56;100864.06;1770482;80;21232;-56
2023/06/09 00:49:45;;;;;;;14.03;7.58;;;;;;;15.66;58.61;100871.95;1770550;79;21260;-55
2023/06/09 00:52:51;;;;;;;15.28;8.00;;;;;;;15.62;58.75;100862.38;1770315;79;21231;-54
2023/06/09 00:55:57;;;;;;;15.85;7.53;;;;;;;15.57;58.93;100864.31;1770268;80;21161;-56
2023/06/09 00:59:03;;;;;;;9.68;7.22;;;;;;;15.53;59.03;100864.40;1782396;79;21829;-56
2023/06/09 01:02:14;;;;;;;11.38;8.18;;;;;;;15.47;59.19;100862.94;1770646;80;21197;-55
2023/06/09 01:05:20;;;;;;;14.55;8.25;;;;;;;15.46;59.44;100870.35;1772584;80;21343;-55
2023/06/09 01:08:35;;;;;;;12.47;7.90;;;;;;;15.43;59.52;100861.09;1772329;79;21205;-55
2023/06/09 01:11:52;;;;;;;12.13;7.67;;;;;;;15.40;59.56;100865.62;1772659;81;21792;-55
2023/06/09 01:15:03;;;;;;;12.63;7.15;;;;;;;15.39;59.71;100865.82;1771653;80;21271;-56
2023/06/09 01:18:13;;;;;;;13.83;6.97;;;;;;;15.36;59.73;100870.32;1771460;79;21764;-55
2023/06/09 01:21:35;;;;;;;10.95;7.12;;;;;;;15.32;59.78;100872.61;1774584;79;21864;-55
2023/06/09 01:25:04;;;;;;;11.35;7.85;;;;;;;15.31;59.98;100870.91;1771732;79;21370;-56
2023/06/09 01:28:21;;;;;;;10.63;7.70;;;;;;;15.30;60.10;100865.04;1770401;79;21374;-56
2023/06/09 01:31:28;;;;;;;9.58;7.87;;;;;;;15.27;60.21;100862.67;1773202;80;21335;-56
2023/06/09 01:34:37;;;;;;;12.03;8.40;;;;;;;15.26;60.41;100860.98;1772566;79;21355;-56
2023/06/09 01:37:42;;;;;;;12.73;7.92;;;;;;;15.27;60.61;100858.53;1771895;79;21224;-56
2023/06/09 01:40:52;;;;;;;10.63;7.42;;;;;;;15.25;60.67;100860.66;1771792;80;21379;-55
2023/06/09 01:43:58;;;;;;;10.68;7.72;;;;;;;15.20;60.63;100860.89;1771384;79;21309;-56
2023/06/09 01:47:05;;;;;;;15.98;8.43;;;;;;;15.16;60.66;100868.70;1772335;80;21173;-57
2023/06/09 01:50:26;;;;;;;15.25;8.70;;;;;;;15.15;60.85;100866.13;1771348;80;21776;-57
2023/06/09 01:53:41;;;;;;;14.50;8.10;;;;;;;15.17;61.06;100858.02;1772598;80;21197;-56
2023/06/09 01:56:53;;;;;;;12.10;7.53;;;;;;;15.17;61.08;100859.39;1771910;80;21754;-56
2023/06/09 02:00:07;;;;;;;12.88;8.63;;;;;;;15.19;61.24;100864.71;1772468;80;21346;-55
2023/06/09 02:03:14;;;;;;;12.68;8.55;;;;;;;15.21;61.25;100880.01;1772254;79;21255;-55
2023/06/09 02:06:21;;;;;;;12.68;7.87;;;;;;;15.22;61.34;100879.49;1771109;80;21150;-55
2023/06/09 02:09:28;;;;;;;16.15;7.67;;;;;;;15.23;61.40;100877.05;1771051;79;21265;-55
2023/06/09 02:12:40;;;;;;;11.68;7.65;;;;;;;15.24;61.45;100869.12;1772042;79;21383;-54
2023/06/09 02:15:46;;;;;;;16.15;7.37;;;;;;;15.23;61.42;100871.02;1772346;80;21189;-54
2023/06/09 02:18:56;;;;;;;13.48;8.20;;;;;;;15.21;61.40;100864.84;1771479;80;21274;-54
2023/06/09 02:22:02;;;;;;;10.18;7.95;;;;;;;15.17;61.27;100868.18;1763650;81;21885;-55
2023/06/09 02:25:11;;;;;;;14.28;8.15;;;;;;;15.15;61.34;100872.52;1773676;80;21348;-54
2023/06/09 02:28:18;;;;;;;12.70;8.40;;;;;;;15.12;61.38;100880.31;1781737;79;21359;-57
2023/06/09 02:31:24;;;;;;;11.57;7.45;;;;;;;15.11;61.49;100873.09;1770781;79;21756;-54
2023/06/09 02:34:31;;;;;;;13.13;8.20;;;;;;;15.11;61.61;100871.17;1770856;79;21461;-54
2023/06/09 02:37:37;;;;;;;11.28;8.03;;;;;;;15.13;61.74;100877.36;1771141;79;22022;-53
2023/06/09 02:40:43;;;;;;;12.50;7.97;;;;;;;15.19;61.83;100879.34;1771069;81;21189;-54
2023/06/09 02:43:51;;;;;;;12.93;8.18;;;;;;;15.21;61.88;100880.01;1771205;79;21199;-53
2023/06/09 02:46:57;;;;;;;14.18;8.95;;;;;;;15.25;61.95;100878.59;1770724;80;21239;-55
2023/06/09 02:50:03;;;;;;;13.38;8.50;;;;;;;15.30;61.96;100887.11;1770926;80;21772;-55
2023/06/09 02:53:09;;;;;;;12.18;8.00;;;;;;;15.29;61.83;100881.27;1770855;79;21212;-55
2023/06/09 02:56:18;;;;;;;13.93;8.18;;;;;;;15.28;61.80;100893.37;1771008;80;21197;-55
2023/06/09 02:59:25;;;;;;;13.13;7.75;;;;;;;15.29;61.87;100888.17;1771136;79;21289;-57
2023/06/09 03:02:34;;;;;;;16.40;8.30;;;;;;;15.35;62.09;100886.01;1770872;79;21904;-57
2023/06/09 03:05:43;;;;;;;13.15;8.05;;;;;;;15.41;62.13;100899.59;1770849;80;21757;-57
2023/06/09 03:08:50;;;;;;;16.75;8.80;;;;;;;15.45;62.15;100899.01;1770989;79;21267;-58
2023/06/09 03:11:56;;;;;;;14.40;8.80;;;;;;;15.51;62.18;100898.22;1770885;80;21300;-57
2023/06/09 03:15:02;;;;;;;16.50;8.65;;;;;;;15.58;62.29;100900.55;1770850;81;21208;-57
2023/06/09 03:18:09;;;;;;;14.60;8.30;;;;;;;15.66;62.42;100894.03;1771005;79;21701;-58
2023/06/09 03:21:16;;;;;;;16.32;9.18;;;;;;;15.75;62.54;100895.09;1770738;81;21228;-58
2023/06/09 03:24:21;;;;;;;12.47;8.10;;;;;;;15.81;62.52;100890.16;1771012;79;21343;-57
2023/06/09 03:27:28;;;;;;;13.35;7.67;;;;;;;15.88;62.52;100894.37;1770495;80;22163;-58
2023/06/09 03:30:34;;;;;;;14.60;8.85;;;;;;;15.96;62.62;100899.77;1769219;80;21367;-57
2023/06/09 03:33:41;;;;;;;14.38;9.35;;;;;;;16.00;62.63;100895.02;1768950;80;21368;-58
2023/06/09 03:36:48;;;;;;;15.60;8.73;;;;;;;16.07;62.70;100893.70;1769161;80;21328;-58
2023/06/09 03:39:56;;;;;;;16.32;8.75;;;;;;;16.14;62.81;100888.55;1768579;80;21344;-57
2023/06/09 03:43:02;;;;;;;12.47;8.43;;;;;;;16.26;62.89;100891.12;1769579;80;21380;-57
2023/06/09 03:46:09;;;;;;;13.93;9.05;;;;;;;16.35;62.99;100898.20;1768961;79;21348;-57
2023/06/09 03:49:17;;;;;;;13.50;9.05;;;;;;;16.47;63.10;100893.53;1768773;80;21272;-57
2023/06/09 03:52:23;;;;;;;10.90;8.55;;;;;;;16.59;63.19;100895.53;1768610;80;21351;-57
2023/06/09 03:55:31;;;;;;;14.23;8.75;;;;;;;16.70;63.29;100898.28;1769151;80;21344;-58
2023/06/09 03:58:36;;;;;;;13.75;8.95;;;;;;;16.84;63.39;100891.77;1745186;81;21378;-57
2023/06/09 04:01:42;;;;;;;15.28;8.80;;;;;;;16.98;63.48;100900.46;1729671;83;21382;-58
2023/06/09 04:04:51;;;;;;;19.00;8.65;;;;;;;17.12;63.56;100891.17;1730026;83;21303;-57
2023/06/09 04:07:58;;;;;;;17.50;8.18;;;;;;;17.27;63.64;100896.88;1729945;83;21406;-58
2023/06/09 04:11:06;;;;;;;12.10;7.90;;;;;;;17.42;63.70;100898.97;1729939;83;21348;-58
2023/06/09 04:14:11;;;;;;;12.20;7.22;;;;;;;17.58;63.75;100899.16;1730133;81;21691;-57
2023/06/09 04:17:18;;;;;;;12.47;7.62;;;;;;;17.74;63.77;100901.54;1730692;83;21343;-58
2023/06/09 04:20:24;;;;;;;16.93;6.92;;;;;;;17.87;63.73;100901.55;1730554;83;21347;-57
2023/06/09 04:23:32;;;;;;;16.02;7.80;;;;;;;17.99;63.67;100899.88;1729781;83;21602;-57
2023/06/09 04:26:40;;;;;;;15.55;7.45;;;;;;;18.13;63.65;100900.20;1713347;82;21406;-58
2023/06/09 04:29:47;;;;;;;13.10;7.78;;;;;;;18.27;63.65;100903.30;1729741;83;21308;-57
2023/06/09 04:32:53;;;;;;;11.50;7.55;;;;;;;18.40;63.63;100901.95;1729694;81;21236;-57
2023/06/09 04:36:03;;;;;;;16.10;6.45;;;;;;;18.55;63.61;100903.12;1730007;83;21406;-58
2023/06/09 04:39:11;;;;;;;13.85;6.50;;;;;;;18.68;63.56;100906.72;1730582;83;21347;-58
2023/06/09 04:42:22;;;;;;;14.53;6.40;;;;;;;18.80;63.48;100905.01;1724755;82;21370;-58
2023/06/09 04:45:34;;;;;;;13.70;6.45;;;;;;;18.94;63.45;100898.88;1734092;81;21188;-58
2023/06/09 04:48:39;;;;;;;36.63;15.43;;;;;;;19.06;63.39;100897.13;1734720;82;21211;-58
2023/06/09 04:51:51;;;;;;;15.48;7.05;;;;;;;19.20;63.33;100905.19;1734576;82;21197;-57
2023/06/09 04:54:57;;;;;;;;;;;;;;;19.31;63.27;100896.20;1730882;82;21251;-58
2023/06/09 04:58:05;;;;;;;14.53;6.35;;;;;;;19.44;63.19;100896.68;1733765;82;20223;-57
2023/06/09 05:01:13;;;;;;;14.63;7.45;;;;;;;19.54;63.14;100894.82;1729688;82;21196;-58
2023/06/09 05:04:21;;;;;;;14.18;6.97;;;;;;;19.66;63.07;100900.01;1716041;82;21208;-54
2023/06/09 05:07:27;;;;;;;51.83;26.05;;;;;;;19.76;63.00;100894.80;1724988;81;21475;-56
2023/06/09 05:10:32;;;;;;;17.82;7.72;;;;;;;19.87;62.92;100894.12;1727669;81;21748;-56
2023/06/09 05:13:40;;;;;;;16.32;7.40;;;;;;;19.98;62.86;100893.40;1731415;82;21211;-57
2023/06/09 05:16:46;;;;;;;14.30;7.50;;;;;;;20.09;62.80;100899.62;1714626;82;21210;-57
2023/06/09 05:19:53;;;;;;;13.13;6.55;;;;;;;20.19;62.73;100900.86;1726410;82;21556;-57
2023/06/09 05:22:59;;;;;;;9.40;6.25;;;;;;;20.30;62.70;100900.12;1726174;82;21593;-57
2023/06/09 05:26:05;;;;;;;11.75;5.80;;;;;;;20.41;62.66;100883.22;1722998;81;21235;-57
2023/06/09 05:29:11;;;;;;;13.13;5.83;;;;;;;20.54;62.58;100888.67;1709388;82;21224;-57
2023/06/09 05:32:18;;;;;;;10.50;6.10;;;;;;;20.65;62.50;100886.53;1721706;82;21768;-59
2023/06/09 05:35:25;;;;;;;12.05;6.35;;;;;;;20.76;62.37;100888.56;1751925;80;21220;-57
2023/06/09 05:38:32;;;;;;;14.40;5.87;;;;;;;20.87;62.30;100886.41;1767199;79;21213;-51
2023/06/09 05:41:39;;;;;;;12.90;6.03;;;;;;;20.98;62.22;100885.67;1760851;81;22062;-56
2023/06/09 05:44:45;;;;;;;9.28;6.15;;;;;;;21.11;62.13;100888.31;1766705;81;21194;-51
2023/06/09 05:47:52;;;;;;;12.50;6.00;;;;;;;21.22;62.09;100880.58;1765743;79;21212;-55
2023/06/09 05:50:58;;;;;;;13.40;6.37;;;;;;;21.35;62.01;100883.73;1769646;80;21200;-54
2023/06/09 05:54:06;;;;;;;12.45;5.72;;;;;;;21.46;61.91;100887.98;1767751;79;21240;-55
2023/06/09 05:57:12;;;;;;;12.75;5.50;;;;;;;21.59;61.83;100889.73;1759853;81;21227;-55
2023/06/09 06:00:20;;;;;;;10.65;5.40;;;;;;;21.71;61.75;100884.52;1766466;81;21532;-55
2023/06/09 06:03:27;;;;;;;11.90;5.53;;;;;;;21.85;61.65;100879.09;1761471;81;21908;-56
2023/06/09 06:06:37;;;;;;;11.20;5.17;;;;;;;21.97;61.47;100879.14;1764966;80;21185;-56
2023/06/09 06:09:44;;;;;;;9.35;5.53;;;;;;;22.09;61.37;100882.80;1766431;80;21173;-55
2023/06/09 06:12:49;;;;;;;13.22;5.60;;;;;;;22.20;61.15;100884.22;1761441;81;21212;-55
2023/06/09 06:15:55;;;;;;;10.00;5.10;;;;;;;22.28;61.00;100877.44;1759072;81;21166;-57
2023/06/09 06:19:01;;;;;;;11.75;4.70;;;;;;;22.39;60.83;100879.39;1766951;79;21737;-55
2023/06/09 06:22:07;;;;;;;10.23;5.10;;;;;;;22.51;60.72;100876.63;1767587;81;21367;-55
2023/06/09 06:25:17;;;;;;;13.80;5.70;;;;;;;22.63;60.59;100873.34;1765316;80;21248;-56
2023/06/09 06:28:24;;;;;;;10.72;5.53;;;;;;;22.74;60.45;100878.08;1726111;81;22264;-59
2023/06/09 06:31:30;;;;;;;25.02;5.33;;;;;;;22.88;60.38;100879.52;1710301;82;21216;-55
2023/06/09 06:34:38;;;;;;;10.43;4.55;;;;;;;23.01;60.26;100873.12;1708934;82;21206;-54
2023/06/09 06:37:43;;;;;;;11.03;4.40;;;;;;;23.12;60.08;100868.63;1747368;79;21184;-54
2023/06/09 06:40:51;;;;;;;8.40;4.58;;;;;;;23.22;59.91;100867.44;1752363;81;21573;-54
2023/06/09 06:43:57;;;;;;;12.25;4.30;;;;;;;23.33;59.56;100862.39;1761082;79;21221;-55
2023/06/09 06:47:03;;;;;;;6.50;4.20;;;;;;;23.41;59.35;100860.61;1767940;81;21185;-55
2023/06/09 06:50:10;;;;;;;9.48;4.08;;;;;;;23.54;59.14;100865.92;1770769;80;21236;-55
2023/06/09 06:53:18;;;;;;;8.98;3.80;;;;;;;23.65;58.83;100866.42;1755361;79;21225;-55
2023/06/09 06:56:26;;;;;;;12.07;3.87;;;;;;;23.74;58.53;100863.52;1754878;81;21189;-55
2023/06/09 06:59:31;;;;;;;10.58;3.80;;;;;;;23.84;58.26;100860.92;1764960;79;21248;-55
2023/06/09 07:02:32;;;;;;;10.58;3.83;;;;;;;23.93;57.95;100858.01;1738887;81;21196;-56
2023/06/09 07:05:38;;;;;;;8.05;3.33;;;;;;;24.00;57.63;100860.69;1760800;81;21193;-55
2023/06/09 07:08:45;;;;;;;13.08;3.17;;;;;;;24.07;57.33;100866.98;1750788;81;21220;-56
2023/06/09 07:11:50;;;;;;;6.50;3.67;;;;;;;24.15;57.03;100866.00;1738634;82;21204;-57
2023/06/09 07:15:00;;;;;;;13.90;4.28;;;;;;;24.24;56.80;100867.84;1743863;79;21197;-58
2023/06/09 07:18:06;;;;;;;6.60;4.00;;;;;;;24.32;56.50;100857.09;1763516;79;21324;-58
2023/06/09 07:21:13;;;;;;;6.22;4.17;;;;;;;24.43;56.24;100858.09;1761802;80;21346;-57
2023/06/09 07:24:19;;;;;;;13.75;4.65;;;;;;;24.52;55.94;100857.95;1767179;81;21256;-57
2023/06/09 07:27:24;;;;;;;7.62;3.70;;;;;;;24.60;55.56;100858.38;1756642;80;21177;-55
2023/06/09 07:30:32;;;;;;;6.10;3.30;;;;;;;24.69;55.26;100861.06;1737609;81;21765;-55
2023/06/09 07:33:38;;;;;;;7.03;3.15;;;;;;;24.76;54.89;100854.75;1749925;81;21197;-56
2023/06/09 07:36:50;;;;;;;6.35;3.60;;;;;;;24.82;54.52;100856.52;1763684;80;21196;-54
2023/06/09 07:39:52;;;;;;;6.58;2.80;;;;;;;24.90;54.22;100851.88;1754439;81;21692;-56
2023/06/09 07:43:00;;;;;;;4.50;2.83;;;;;;;24.98;53.87;100851.97;1763681;79;21773;-54
2023/06/09 07:46:07;;;;;;;11.12;3.83;;;;;;;25.05;53.52;100843.66;1744158;81;21754;-56
2023/06/09 07:49:13;;;;;;;7.10;3.70;;;;;;;25.11;53.15;100846.00;1760683;79;21216;-56
2023/06/09 07:52:20;;;;;;;9.93;4.05;;;;;;;25.17;52.78;100841.30;1773455;80;22041;-57
2023/06/09 07:55:25;;;;;;;5.60;2.87;;;;;;;25.25;52.44;100839.44;1768134;80;21184;-55
2023/06/09 07:58:31;;;;;;;9.05;2.90;;;;;;;25.32;52.02;100844.31;1768325;79;21268;-55
2023/06/09 08:01:38;;;;;;;9.58;4.20;;;;;;;25.37;51.65;100842.44;1761366;80;22034;-55
2023/06/09 08:04:46;;;;;;;10.50;3.20;;;;;;;25.43;51.29;100843.36;1757677;79;22030;-55
2023/06/09 08:07:52;;;;;;;7.37;3.40;;;;;;;25.48;51.01;100839.22;1766605;79;21217;-58
2023/06/09 08:10:59;;;;;;;5.62;3.25;;;;;;;25.56;50.67;100838.75;1759880;81;21776;-56
2023/06/09 08:14:10;;;;;;;10.93;3.37;;;;;;;25.62;50.33;100838.55;1751870;80;21591;-56
2023/06/09 08:17:12;;;;;;;6.00;3.17;;;;;;;25.68;49.97;100835.23;1763048;80;21202;-55
2023/06/09 08:20:20;;;;;;;5.35;3.02;;;;;;;25.75;49.70;100834.48;1744261;80;21742;-56
2023/06/09 08:23:24;;;;;;;23.40;19.92;;;;;;;25.80;49.27;100829.75;1766195;79;21212;-55
2023/06/09 08:26:29;;;;;;;10.63;4.75;;;;;;;25.87;48.91;100832.35;1763650;80;21785;-58
2023/06/09 08:29:36;;;;;;;5.10;3.30;;;;;;;25.92;48.59;100839.42;1756577;79;21240;-55
2023/06/09 08:32:40;;;;;;;8.93;3.15;;;;;;;25.97;48.29;100828.26;1764509;80;21679;-58
2023/06/09 08:35:47;;;;;;;5.33;2.85;;;;;;;26.02;47.98;100826.36;1749929;80;21220;-55
2023/06/09 08:38:53;;;;;;;5.00;3.00;;;;;;;26.08;47.70;100830.08;1751156;79;21207;-56
2023/06/09 08:42:01;;;;;;;4.70;2.85;;;;;;;26.15;47.46;100827.33;1764542;79;21189;-57
2023/06/09 08:45:12;;;;;;;7.37;3.10;;;;;;;26.24;47.08;100830.51;1764106;79;21633;-56
2023/06/09 08:48:18;;;;;;;9.18;2.90;;;;;;;26.30;46.76;100826.08;1717490;82;21737;-55
2023/06/09 08:51:25;;;;;;;7.97;3.10;;;;;;;26.38;46.44;100822.77;1727380;82;21216;-57
2023/06/09 08:54:30;;;;;;;13.08;3.35;;;;;;;26.44;46.09;100816.08;1672269;83;21291;-55
2023/06/09 08:57:39;;;;;;;11.35;3.17;;;;;;;26.53;45.86;100817.80;1704051;83;21266;-55
2023/06/09 09:00:47;;;;;;;11.68;3.65;;;;;;;26.61;45.63;100825.73;1765187;80;21180;-55
2023/06/09 09:03:54;;;;;;;10.28;3.40;;;;;;;26.67;45.33;100824.67;1766626;79;21313;-59
2023/06/09 09:07:02;;;;;;;6.05;3.02;;;;;;;26.75;45.05;100820.53;1764616;79;21177;-57
2023/06/09 09:10:08;;;;;;;6.45;3.30;;;;;;;26.83;44.83;100812.42;1769019;79;21585;-58
2023/06/09 09:13:15;;;;;;;4.20;2.52;;;;;;;26.92;44.59;100815.02;1769072;79;22061;-57
2023/06/09 09:16:20;;;;;;;14.33;3.42;;;;;;;27.06;44.40;100811.15;1768541;79;21244;-58
2023/06/09 09:19:35;;;;;;;6.62;2.75;;;;;;;27.17;44.19;100803.91;1769000;79;21570;-57
2023/06/09 09:22:56;;;;;;;8.20;3.25;;;;;;;27.32;43.89;100801.16;1766638;79;21192;-57
2023/06/09 09:26:07;;;;;;;8.23;3.05;;;;;;;27.40;43.58;100800.64;1770413;80;21240;-60
2023/06/09 09:29:15;;;;;;;6.53;2.98;;;;;;;27.40;43.23;100797.83;1768667;81;21236;-59
2023/06/09 09:32:22;;;;;;;7.92;2.90;;;;;;;27.53;43.02;100800.13;1768408;81;21763;-58
2023/06/09 09:35:28;;;;;;;4.55;2.58;;;;;;;27.69;42.83;100800.45;1769803;80;21391;-58
2023/06/09 09:38:33;;;;;;;5.10;2.60;;;;;;;27.85;42.55;100802.17;1754569;79;21841;-57
2023/06/09 09:41:40;;;;;;;10.53;3.00;;;;;;;27.95;42.21;100797.70;1767459;81;21213;-56
2023/06/09 09:44:52;;;;;;;10.98;2.65;;;;;;;27.91;41.87;100800.80;1762416;81;21212;-56
2023/06/09 09:47:59;;;;;;;5.83;2.58;;;;;;;27.91;41.66;100800.80;1766173;79;21275;-55
2023/06/09 09:51:04;;;;;;;9.18;2.85;;;;;;;27.96;41.43;100797.97;1755454;81;21726;-55
2023/06/09 09:54:09;;;;;;;10.18;7.62;;;;;;;28.08;41.27;100795.75;1765572;79;21240;-56
2023/06/09 09:57:15;;;;;;;6.50;2.62;;;;;;;28.23;41.10;100788.70;1763144;81;21208;-55
2023/06/09 10:00:24;;;;;;;12.20;4.37;;;;;;;28.35;40.84;100792.09;1748122;81;21245;-54
2023/06/09 10:03:32;;;;;;;4.25;2.47;;;;;;;28.47;40.57;100790.66;1760802;79;21649;-56
2023/06/09 10:06:38;;;;;;;8.60;2.80;;;;;;;28.57;40.33;100788.43;1760756;81;21610;-58
2023/06/09 10:09:46;;;;;;;3.85;2.50;;;;;;;28.55;39.99;100780.81;1768598;81;21224;-56
2023/06/09 10:12:53;;;;;;;4.35;2.42;;;;;;;28.54;39.69;100773.50;1767425;80;21204;-55
2023/06/09 10:15:59;;;;;;;8.23;3.12;;;;;;;28.57;39.54;100774.34;1745832;80;21197;-55
2023/06/09 10:19:06;;;;;;;4.75;1.95;;;;;;;28.62;39.26;100774.34;1739144;81;21765;-56
2023/06/09 10:22:14;;;;;;;5.85;2.50;;;;;;;28.68;39.17;100767.00;1760718;80;21708;-55
2023/06/09 10:25:22;;;;;;;4.58;2.62;;;;;;;28.79;38.93;100762.17;1714462;82;21219;-58
2023/06/09 10:28:29;;;;;;;7.03;2.67;;;;;;;28.89;38.75;100759.33;1697435;84;21287;-57
2023/06/09 10:31:36;;;;;;;8.05;2.90;;;;;;;28.91;38.50;100752.25;1768029;80;21220;-56
2023/06/09 10:34:41;;;;;;;6.47;2.35;;;;;;;28.97;38.25;100746.88;1733453;81;21169;-56
2023/06/09 10:37:50;;;;;;;6.95;2.25;;;;;;;29.11;38.13;100749.96;1708677;83;21189;-56
2023/06/09 10:40:59;;;;;;;4.35;2.45;;;;;;;29.20;37.96;100748.22;1696013;80;21208;-56
2023/06/09 10:44:26;;;;;;;6.65;2.60;;;;;;;29.32;37.83;100749.30;1766725;80;22100;-55
2023/06/09 10:47:53;;;;;;;6.12;2.17;;;;;;;29.41;37.62;100744.16;1730353;81;21192;-56
2023/06/09 10:50:59;;;;;;;6.28;2.20;;;;;;;29.45;37.26;100749.48;1762742;80;21534;-56
2023/06/09 10:54:21;;;;;;;7.78;2.25;;;;;;;29.35;36.79;100742.52;1761506;80;21642;-55
2023/06/09 10:57:45;;;;;;;4.85;2.33;;;;;;;29.38;36.61;100746.16;1761376;80;21170;-55
2023/06/09 11:01:14;;;;;;;5.72;2.20;;;;;;;29.49;36.46;100730.00;1751228;79;21235;-56
2023/06/09 11:04:52;;;;;;;4.75;2.12;;;;;;;29.62;36.38;100728.77;1715311;82;21192;-57
2023/06/09 11:08:04;;;;;;;5.22;2.50;;;;;;;29.78;36.22;100726.73;1686130;83;21230;-58
2023/06/09 11:11:22;;;;;;;6.65;2.45;;;;;;;29.83;35.80;100722.44;1724588;82;21225;-56
2023/06/09 11:15:05;;;;;;;8.08;2.27;;;;;;;29.62;35.20;100707.59;1726083;82;21617;-55
2023/06/09 11:18:24;;;;;;;5.75;3.15;;;;;;;29.53;35.02;100703.72;1759352;80;21223;-56
2023/06/09 11:21:32;;;;;;;5.85;2.72;;;;;;;29.61;35.06;100696.05;1763874;80;21766;-54
2023/06/09 11:24:58;;;;;;;4.72;2.75;;;;;;;29.80;35.14;100694.80;1765140;81;21832;-57
2023/06/09 11:28:09;;;;;;;4.87;2.12;;;;;;;29.94;34.93;100697.24;1768361;79;21200;-56
2023/06/09 11:31:14;;;;;;;6.70;2.37;;;;;;;30.03;34.25;100682.16;1765039;80;21354;-58
2023/06/09 11:34:56;;;;;;;4.42;2.60;;;;;;;30.03;34.25;100682.16;1769479;79;21763;-57
2023/06/09 11:38:07;;;;;;;5.97;2.25;;;;;;;30.15;33.74;100684.03;1739274;81;21247;-56
2023/06/09 11:41:13;;;;;;;5.50;2.90;;;;;;;30.15;33.74;100684.03;1749504;80;21768;-55
2023/06/09 11:44:22;;;;;;;7.03;2.22;;;;;;;30.21;33.53;100672.98;1770220;79;21401;-58
2023/06/09 11:47:33;;;;;;;6.22;2.95;;;;;;;30.21;33.53;100672.98;1769262;80;21266;-57
2023/06/09 11:50:50;;;;;;;4.25;2.40;;;;;;;30.31;33.48;100665.82;1770123;80;21861;-57
2023/06/09 11:53:57;;;;;;;7.40;2.50;;;;;;;30.31;33.48;100665.82;1765127;79;21773;-57
2023/06/09 11:57:03;;;;;;;5.47;2.52;;;;;;;30.34;33.12;100662.95;1768129;80;21197;-57
2023/06/09 12:00:18;;;;;;;6.30;2.70;;;;;;;30.42;32.84;100667.95;1763763;80;21228;-55
2023/06/09 12:03:27;;;;;;;5.97;2.67;;;;;;;30.42;32.84;100667.95;1759746;81;21338;-57
2023/06/09 12:06:36;;;;;;;8.15;3.20;;;;;;;30.42;32.84;100665.13;1765980;80;21840;-55
2023/06/09 12:09:42;;;;;;;6.25;2.80;;;;;;;30.32;32.75;100666.08;1755481;80;21378;-57
2023/06/09 12:12:59;;;;;;;7.47;3.20;;;;;;;30.28;32.53;100663.60;1757021;79;21379;-58
2023/06/09 12:16:07;;;;;;;4.45;2.50;;;;;;;30.25;32.37;100655.72;1763857;81;21201;-57
2023/06/09 12:19:12;;;;;;;4.72;2.52;;;;;;;30.26;32.21;100654.57;1720397;81;21215;-60
2023/06/09 12:22:19;;;;;;;6.78;2.83;;;;;;;30.28;32.12;100644.38;1763555;81;21256;-57
2023/06/09 12:25:33;;;;;;;6.90;3.17;;;;;;;30.27;31.96;100645.53;1733652;81;21286;-58
2023/06/09 12:28:39;;;;;;;4.78;2.33;;;;;;;30.26;31.99;100639.03;1761675;79;21205;-58
2023/06/09 12:31:54;;;;;;;4.65;2.72;;;;;;;30.32;31.90;100639.23;1767932;81;21448;-57
2023/06/09 12:35:09;;;;;;;8.85;3.15;;;;;;;30.36;31.76;100626.22;1762929;81;21350;-57
2023/06/09 12:38:31;;;;;;;5.42;2.80;;;;;;;30.39;31.67;100624.76;1700231;81;21191;-59
2023/06/09 12:41:37;;;;;;;18.43;11.90;;;;;;;30.34;31.41;100625.66;1712554;82;21442;-56
2023/06/09 12:44:44;;;;;;;7.53;3.92;;;;;;;30.20;31.37;100624.66;1734679;81;22452;-58
2023/06/09 12:47:57;;;;;;;6.78;2.70;;;;;;;30.20;31.37;100624.66;1725649;81;21227;-58
2023/06/09 12:51:06;;;;;;;8.88;2.98;;;;;;;30.09;31.22;100617.45;1734823;82;21180;-57
2023/06/09 12:54:12;;;;;;;6.12;2.70;;;;;;;30.08;31.27;100605.86;1687700;83;21240;-58
2023/06/09 12:57:19;;;;;;;4.97;3.00;;;;;;;30.13;31.31;100612.86;1735207;81;21215;-59
2023/06/09 13:00:26;;;;;;;5.08;2.40;;;;;;;30.16;31.31;100607.20;1732888;81;21588;-58
2023/06/09 13:03:32;;;;;;;5.17;2.65;;;;;;;30.20;31.07;100602.63;1732010;81;21219;-56
2023/06/09 13:06:39;;;;;;;5.75;2.42;;;;;;;30.21;31.17;100595.86;1735472;82;21743;-57
2023/06/09 13:09:44;;;;;;;11.83;2.83;;;;;;;30.26;31.02;100608.52;1709842;82;21804;-57
2023/06/09 13:12:52;;;;;;;4.95;2.35;;;;;;;30.26;31.02;100608.52;1716562;82;21211;-57
2023/06/09 13:15:57;;;;;;;6.37;2.27;;;;;;;30.26;31.07;100598.06;1733383;81;21188;-56
2023/06/09 13:19:06;;;;;;;8.30;2.65;;;;;;;30.17;30.86;100599.84;1728860;82;21200;-55
2023/06/09 13:22:16;;;;;;;8.30;2.58;;;;;;;30.12;31.03;100600.45;1729713;82;21275;-54
2023/06/09 13:25:21;;;;;;;7.72;2.80;;;;;;;30.14;30.92;100596.77;1726364;82;21197;-57
2023/06/09 13:28:27;;;;;;;7.35;3.12;;;;;;;30.21;30.98;100598.12;1733965;82;21219;-57
2023/06/09 13:31:33;;;;;;;4.35;2.37;;;;;;;30.31;30.96;100585.86;1734271;82;21239;-54
2023/06/09 13:34:38;;;;;;;7.25;2.95;;;;;;;30.34;30.73;100583.28;1733891;82;21196;-56
2023/06/09 13:37:44;;;;;;;15.98;3.08;;;;;;;30.22;30.51;100577.19;1732853;82;21200;-56
2023/06/09 13:40:49;;;;;;;15.88;2.65;;;;;;;30.05;30.24;100573.97;1732525;82;21296;-55
2023/06/09 13:43:59;;;;;;;7.58;2.72;;;;;;;30.05;30.24;100573.97;1748787;80;21194;-56
2023/06/09 13:47:04;;;;;;;4.80;2.40;;;;;;;29.98;30.45;100568.42;1765381;80;21186;-55
2023/06/09 13:50:14;;;;;;;4.62;2.50;;;;;;;29.59;30.05;100573.31;1766468;81;21719;-55
2023/06/09 13:53:22;;;;;;;6.17;2.80;;;;;;;29.59;30.05;100573.31;1738762;81;21216;-58
2023/06/09 13:56:28;;;;;;;5.40;2.58;;;;;;;29.36;30.21;100570.69;1739425;82;21998;-55
2023/06/09 13:59:36;;;;;;;5.30;2.65;;;;;;;29.15;30.19;100569.16;1740617;81;21228;-55
2023/06/09 14:02:45;;;;;;;8.35;2.77;;;;;;;28.96;30.24;100572.36;1740094;81;21888;-53
2023/06/09 14:05:52;;;;;;;4.97;2.37;;;;;;;28.94;30.37;100555.73;1739675;82;21753;-54
2023/06/09 14:09:00;;;;;;;6.40;2.12;;;;;;;29.02;30.48;100554.27;1739822;81;21209;-53
2023/06/09 14:12:07;;;;;;;4.45;2.55;;;;;;;29.11;30.65;100549.73;1739092;81;21424;-53
2023/06/09 14:15:15;;;;;;;6.33;2.20;;;;;;;29.16;30.69;100552.53;1738984;81;21205;-54
2023/06/09 14:18:23;;;;;;;4.15;2.15;;;;;;;29.22;30.83;100539.47;1739420;81;21355;-54
2023/06/09 14:21:29;;;;;;;5.15;2.50;;;;;;;29.32;30.85;100537.12;1740605;82;21892;-54
2023/06/09 14:24:36;;;;;;;5.28;2.40;;;;;;;29.41;30.85;100532.56;1740616;81;21393;-54
2023/06/09 14:27:42;;;;;;;7.37;2.67;;;;;;;29.46;30.78;100532.52;1740500;81;21924;-55
2023/06/09 14:30:48;;;;;;;7.67;2.42;;;;;;;29.47;30.71;100532.78;1740538;82;21366;-55
2023/06/09 14:33:56;;;;;;;5.45;2.50;;;;;;;29.49;30.69;100522.61;1740498;81;21898;-54